Time;durP1;ratioP1;P1;durP2;ratioP2;P2;SDS_P1;SDS_P2;PMS_P1;PMS_P2;Temp;Humidity;BMP_temperature;BMP_pressure;BME280_temperature;BME280_humidity;BME280_pressure;Samples;Min_cycle;Max_cycle;Signal;HPM_P1;HPM_P2
2021/12/15 01:21:12;;;;;;;72.43;23.38;;;;;;;;;;4924348;29;20127;-93
2021/12/15 01:23:38;;;;;;;61.00;21.85;;;;;;;;;;4923453;29;20024;-94
2021/12/15 01:26:07;;;;;;;52.63;21.65;;;;;;;;;;4924143;29;20327;-95
2021/12/15 01:28:33;;;;;;;73.78;22.52;;;;;;;;;;4907668;29;20064;-94
2021/12/15 01:30:59;;;;;;;57.30;20.45;;;;;;;;;;4923971;29;20107;-94
2021/12/15 01:33:26;;;;;;;65.18;22.85;;;;;;;;;;4923707;29;20020;-93
2021/12/15 01:35:53;;;;;;;62.85;21.55;;;;;;;;;;4907474;29;20051;-93
2021/12/15 01:38:20;;;;;;;81.60;22.83;;;;;;;;;;4923676;29;20119;-93
2021/12/15 01:40:46;;;;;;;64.57;23.58;;;;;;;;;;4924243;29;20052;-92
2021/12/15 01:43:19;;;;;;;108.50;23.33;;;;;;;;;;4907211;29;20044;-93
2021/12/15 01:48:32;;;;;;;61.05;22.38;;;;;;;;;;4924152;29;20125;-93
2021/12/15 01:50:59;;;;;;;62.30;22.73;;;;;;;;;;4923642;29;20115;-94
2021/12/15 01:53:25;;;;;;;61.28;21.95;;;;;;;;;;4906887;29;20326;-93
2021/12/15 01:55:52;;;;;;;85.93;24.65;;;;;;;;;;4923746;29;20068;-93
2021/12/15 01:58:18;;;;;;;100.05;24.58;;;;;;;;;;4923939;29;20028;-93
2021/12/15 02:00:49;;;;;;;75.90;25.50;;;;;;;;;;4903218;29;20045;-94
2021/12/15 02:03:15;;;;;;;65.18;24.00;;;;;;;;;;4919064;29;20036;-93
2021/12/15 02:05:42;;;;;;;100.38;25.13;;;;;;;;;;4923928;29;20330;-94
2021/12/15 02:08:08;;;;;;;64.88;26.52;;;;;;;;;;4906545;29;20055;-94
2021/12/15 02:10:36;;;;;;;69.18;27.67;;;;;;;;;;4923042;29;20037;-93
2021/12/15 02:13:04;;;;;;;107.40;27.85;;;;;;;;;;4923151;29;20059;-95
2021/12/15 02:15:35;;;;;;;99.05;27.70;;;;;;;;;;4923058;29;20052;-94
2021/12/15 02:18:03;;;;;;;86.57;26.50;;;;;;;;;;4922413;29;20446;-93
2021/12/15 02:20:34;;;;;;;78.47;27.17;;;;;;;;;;4906493;29;20051;-94
2021/12/15 02:23:00;;;;;;;99.47;28.80;;;;;;;;;;4906657;29;20028;-94
2021/12/15 02:25:26;;;;;;;87.63;28.58;;;;;;;;;;4906646;29;20462;-94
2021/12/15 02:27:53;;;;;;;106.55;26.42;;;;;;;;;;4923143;29;20035;-95
2021/12/15 02:30:50;;;;;;;97.53;25.55;;;;;;;;;;4923302;29;20020;-95
2021/12/15 02:41:36;;;;;;;99.25;27.23;;;;;;;;;;4922688;29;20087;-92
2021/12/15 02:44:04;;;;;;;72.63;24.02;;;;;;;;;;4905261;29;20048;-92
2021/12/15 02:46:32;;;;;;;76.70;22.15;;;;;;;;;;4922638;29;20071;-92
2021/12/15 02:48:58;;;;;;;58.33;23.05;;;;;;;;;;4922724;29;20072;-93
2021/12/15 02:51:25;;;;;;;64.30;22.20;;;;;;;;;;4902985;29;20435;-96
2021/12/15 02:57:04;;;;;;;50.22;20.05;;;;;;;;;;4907212;29;20084;-94
2021/12/15 02:59:31;;;;;;;44.45;16.73;;;;;;;;;;4922089;29;20059;-94
2021/12/15 03:04:48;;;;;;;50.30;18.08;;;;;;;;;;4922655;29;20067;-92
2021/12/15 03:07:41;;;;;;;33.85;17.92;;;;;;;;;;4905802;29;20043;-93
2021/12/15 03:16:14;;;;;;;52.22;16.40;;;;;;;;;;4882545;29;20063;-94
2021/12/15 03:18:40;;;;;;;61.55;17.60;;;;;;;;;;4883071;29;20035;-93
2021/12/15 03:47:28;;;;;;;45.05;17.60;;;;;;;;;;4882364;29;19994;-93
2021/12/15 03:49:55;;;;;;;42.60;17.48;;;;;;;;;;4882166;29;20113;-92
2021/12/15 03:52:21;;;;;;;41.38;17.88;;;;;;;;;;4882408;29;20128;-92
2021/12/15 03:57:52;;;;;;;44.67;17.42;;;;;;;;;;4921834;29;20481;-92
2021/12/15 04:00:19;;;;;;;54.08;17.83;;;;;;;;;;4921726;29;20036;-93
2021/12/15 04:02:46;;;;;;;45.15;19.58;;;;;;;;;;4904990;29;20028;-93
2021/12/15 04:05:12;;;;;;;42.38;19.55;;;;;;;;;;4904759;29;20040;-92
2021/12/15 04:07:39;;;;;;;48.97;20.70;;;;;;;;;;4916680;29;20048;-92
2021/12/15 04:16:27;;;;;;;50.58;22.33;;;;;;;;;;4921245;29;20059;-93
2021/12/15 04:18:54;;;;;;;46.33;21.35;;;;;;;;;;4921157;29;20107;-93
2021/12/15 04:21:20;;;;;;;43.58;20.20;;;;;;;;;;4921601;29;20020;-92
2021/12/15 04:23:50;;;;;;;43.92;18.35;;;;;;;;;;4921740;29;20063;-91
2021/12/15 04:26:16;;;;;;;42.35;18.25;;;;;;;;;;4921200;29;20040;-92
2021/12/15 04:28:42;;;;;;;42.88;18.50;;;;;;;;;;4904226;29;20430;-93
2021/12/15 04:31:11;;;;;;;49.83;18.15;;;;;;;;;;4920945;29;20036;-93
2021/12/15 04:33:44;;;;;;;52.38;18.65;;;;;;;;;;4921297;29;20056;-93
2021/12/15 04:38:58;;;;;;;48.58;19.67;;;;;;;;;;4917775;29;20078;-92
2021/12/15 04:44:11;;;;;;;53.42;19.85;;;;;;;;;;4925609;29;20159;-92
2021/12/15 04:46:38;;;;;;;48.50;20.20;;;;;;;;;;4906927;29;20056;-92
2021/12/15 04:49:06;;;;;;;45.38;19.45;;;;;;;;;;4924455;29;20036;-93
2021/12/15 04:51:32;;;;;;;61.97;19.98;;;;;;;;;;4924529;29;20035;-92
2021/12/15 04:53:59;;;;;;;46.47;20.00;;;;;;;;;;4924346;29;20035;-93
2021/12/15 04:56:26;;;;;;;43.42;19.58;;;;;;;;;;4908214;29;20051;-92
2021/12/15 04:58:53;;;;;;;51.85;20.52;;;;;;;;;;4907659;29;20099;-92
2021/12/15 05:01:20;;;;;;;48.42;19.58;;;;;;;;;;4924507;29;20028;-93
2021/12/15 05:03:46;;;;;;;62.78;20.85;;;;;;;;;;4924677;29;20067;-93
2021/12/15 05:06:12;;;;;;;59.03;21.85;;;;;;;;;;4907874;29;20526;-92
2021/12/15 05:08:39;;;;;;;57.30;24.17;;;;;;;;;;4923119;29;20067;-93
2021/12/15 05:11:06;;;;;;;54.08;23.23;;;;;;;;;;4924927;29;20035;-93
2021/12/15 05:13:34;;;;;;;55.42;23.35;;;;;;;;;;4923547;29;20028;-94
2021/12/15 05:16:00;;;;;;;61.60;22.98;;;;;;;;;;4922991;29;20040;-93
2021/12/15 05:18:26;;;;;;;52.22;23.80;;;;;;;;;;4924441;29;20324;-92
2021/12/15 05:20:53;;;;;;;54.63;26.70;;;;;;;;;;4924300;29;20124;-93
2021/12/15 05:29:27;;;;;;;59.00;27.42;;;;;;;;;;4924101;29;20055;-93
2021/12/15 05:31:54;;;;;;;60.42;28.85;;;;;;;;;;4924157;29;20055;-92
2021/12/15 05:34:20;;;;;;;63.63;28.63;;;;;;;;;;4907434;29;20023;-93
2021/12/15 05:36:47;;;;;;;82.30;24.73;;;;;;;;;;4924079;29;20163;-92
2021/12/15 05:42:19;;;;;;;79.97;30.45;;;;;;;;;;4905658;29;20084;-92
2021/12/15 05:44:45;;;;;;;74.97;33.33;;;;;;;;;;4911969;29;20054;-92
2021/12/15 05:47:11;;;;;;;54.67;25.05;;;;;;;;;;4922987;29;20028;-92
2021/12/15 05:49:37;;;;;;;54.22;20.50;;;;;;;;;;4903210;29;20456;-93
2021/12/15 05:52:04;;;;;;;63.20;23.60;;;;;;;;;;4919806;29;20028;-93
2021/12/15 05:54:30;;;;;;;44.35;21.65;;;;;;;;;;4907219;29;20036;-94
2021/12/15 05:56:58;;;;;;;55.30;21.45;;;;;;;;;;4923773;29;20111;-95
2021/12/15 05:59:24;;;;;;;45.13;20.10;;;;;;;;;;4923985;29;20054;-94
2021/12/15 06:01:52;;;;;;;51.70;22.60;;;;;;;;;;4906949;29;20087;-94
2021/12/15 06:04:18;;;;;;;45.75;21.63;;;;;;;;;;4923687;29;20061;-92
2021/12/15 06:06:44;;;;;;;48.70;21.35;;;;;;;;;;4922955;29;20159;-92
2021/12/15 06:09:12;;;;;;;46.08;20.83;;;;;;;;;;4906482;29;20036;-94
2021/12/15 06:11:38;;;;;;;52.72;22.48;;;;;;;;;;4906550;29;20449;-93
2021/12/15 06:14:04;;;;;;;45.65;20.90;;;;;;;;;;4923581;29;20039;-94
2021/12/15 06:16:31;;;;;;;47.80;20.05;;;;;;;;;;4922955;29;20312;-94
2021/12/15 06:18:57;;;;;;;42.20;18.95;;;;;;;;;;4906274;29;20482;-94
2021/12/15 06:21:24;;;;;;;42.17;17.35;;;;;;;;;;4905919;29;20646;-93
2021/12/15 06:23:50;;;;;;;43.47;19.55;;;;;;;;;;4923266;29;20326;-94
2021/12/15 06:26:17;;;;;;;42.10;19.65;;;;;;;;;;4923199;29;20407;-93
2021/12/15 06:28:43;;;;;;;43.03;19.00;;;;;;;;;;4923022;29;20036;-94
2021/12/15 06:31:11;;;;;;;37.25;18.42;;;;;;;;;;4923161;29;20024;-94
2021/12/15 06:33:42;;;;;;;33.65;17.48;;;;;;;;;;4922935;29;20031;-94
2021/12/15 06:36:09;;;;;;;39.08;17.73;;;;;;;;;;4923107;29;20035;-93
2021/12/15 06:38:48;;;;;;;41.80;18.15;;;;;;;;;;4922407;29;20038;-92
2021/12/15 06:41:14;;;;;;;40.97;19.10;;;;;;;;;;4922787;29;20024;-92
2021/12/15 06:43:44;;;;;;;62.45;28.75;;;;;;;;;;4923039;29;20425;-92
2021/12/15 07:00:16;;;;;;;;;;;;;;;;;;4835582;29;20105;-94
2021/12/15 07:02:42;;;;;;;73.40;37.03;;;;;;;;;;4846074;29;19924;-93
2021/12/15 07:05:08;;;;;;;98.43;35.50;;;;;;;;;;4846790;29;20034;-94
2021/12/15 07:07:38;;;;;;;126.45;36.78;;;;;;;;;;4845987;29;20087;-93
2021/12/15 07:10:06;;;;;;;57.08;25.58;;;;;;;;;;4845993;29;20042;-93
2021/12/15 07:12:32;;;;;;;44.33;21.55;;;;;;;;;;4846023;29;20037;-93
2021/12/15 07:14:58;;;;;;;49.40;20.58;;;;;;;;;;4845859;29;20037;-94
2021/12/15 07:17:25;;;;;;;47.53;20.23;;;;;;;;;;4846319;29;20520;-93
2021/12/15 07:25:07;;;;;;;41.83;22.08;;;;;;;;;;4827416;29;20073;-93
2021/12/15 07:27:33;;;;;;;40.65;20.58;;;;;;;;;;4836298;29;20093;-92
2021/12/15 07:30:00;;;;;;;45.70;21.67;;;;;;;;;;4867129;29;20447;-93
2021/12/15 07:32:26;;;;;;;44.33;22.15;;;;;;;;;;4882522;29;20039;-92
2021/12/15 07:34:52;;;;;;;50.63;21.77;;;;;;;;;;4882797;29;20352;-92
2021/12/15 07:37:18;;;;;;;44.90;21.92;;;;;;;;;;4882184;29;20024;-91
2021/12/15 07:39:54;;;;;;;66.60;22.38;;;;;;;;;;4881892;29;20120;-93
2021/12/15 07:42:29;;;;;;;41.65;21.75;;;;;;;;;;4867017;29;20131;-92
2021/12/15 07:44:55;;;;;;;60.20;25.05;;;;;;;;;;4882723;29;20451;-93
2021/12/15 07:47:22;;;;;;;56.05;27.20;;;;;;;;;;4866851;29;20590;-92
2021/12/15 07:49:48;;;;;;;75.65;31.02;;;;;;;;;;4882563;29;20033;-92
2021/12/15 07:52:14;;;;;;;74.05;32.08;;;;;;;;;;4882846;29;20060;-91
2021/12/15 07:57:43;;;;;;;66.63;29.70;;;;;;;;;;4877309;29;20060;-91
2021/12/15 08:00:09;;;;;;;63.50;29.02;;;;;;;;;;4909110;29;20067;-92
2021/12/15 08:02:35;;;;;;;69.18;33.30;;;;;;;;;;4904605;29;20409;-95
2021/12/15 08:05:02;;;;;;;56.42;27.25;;;;;;;;;;4921656;29;20032;-95
2021/12/15 08:07:28;;;;;;;43.95;20.20;;;;;;;;;;4921614;29;20028;-94
2021/12/15 08:09:54;;;;;;;45.40;21.80;;;;;;;;;;4904226;29;20330;-94
2021/12/15 08:12:20;;;;;;;116.28;37.72;;;;;;;;;;4901082;29;20100;-93
2021/12/15 08:14:46;;;;;;;118.18;37.25;;;;;;;;;;4904263;29;20108;-95
2021/12/15 08:17:12;;;;;;;89.47;30.77;;;;;;;;;;4888560;29;20060;-94
2021/12/15 08:19:38;;;;;;;117.57;35.85;;;;;;;;;;4885953;29;20111;-94
2021/12/15 08:22:06;;;;;;;106.43;32.05;;;;;;;;;;4886335;29;20058;-94
2021/12/15 08:24:32;;;;;;;42.38;19.70;;;;;;;;;;4886213;29;20047;-95
2021/12/15 08:26:58;;;;;;;43.85;19.58;;;;;;;;;;4886029;29;20115;-93
2021/12/15 08:29:24;;;;;;;85.50;23.92;;;;;;;;;;4908397;29;20463;-94
2021/12/15 08:31:50;;;;;;;75.60;27.35;;;;;;;;;;4911738;29;20120;-92
2021/12/15 08:34:16;;;;;;;109.32;39.10;;;;;;;;;;4885790;29;20116;-91
2021/12/15 08:36:42;;;;;;;38.28;19.23;;;;;;;;;;4902516;29;20411;-92
2021/12/15 08:39:09;;;;;;;33.45;16.88;;;;;;;;;;4919870;29;20032;-92
2021/12/15 08:41:35;;;;;;;46.80;23.00;;;;;;;;;;4906245;29;20037;-92
2021/12/15 08:44:06;;;;;;;39.33;21.45;;;;;;;;;;4902675;29;20033;-93
2021/12/15 08:46:33;;;;;;;69.35;30.25;;;;;;;;;;4902782;29;20036;-94
2021/12/15 08:49:00;;;;;;;44.60;19.55;;;;;;;;;;4885806;29;20033;-93
2021/12/15 10:18:22;;;;;;;63.78;32.28;;;;;;;;;;4903079;29;20065;-95
2021/12/15 10:20:48;;;;;;;70.80;38.03;;;;;;;;;;4902884;29;20037;-94
2021/12/15 10:23:22;;;;;;;72.90;35.55;;;;;;;;;;4902789;29;20032;-94
2021/12/15 10:25:49;;;;;;;94.03;37.20;;;;;;;;;;4902823;29;20305;-94
2021/12/15 10:28:20;;;;;;;80.20;42.33;;;;;;;;;;4902830;29;20032;-94
2021/12/15 10:30:49;;;;;;;83.88;43.25;;;;;;;;;;4902844;29;20025;-94
2021/12/15 10:33:18;;;;;;;74.50;39.70;;;;;;;;;;4902691;29;20076;-94
2021/12/15 10:35:52;;;;;;;97.97;55.60;;;;;;;;;;4902784;29;20021;-94
2021/12/15 10:38:21;;;;;;;84.72;47.08;;;;;;;;;;4902507;29;20053;-94
2021/12/15 10:41:08;;;;;;;68.13;35.50;;;;;;;;;;4902648;29;20043;-94
2021/12/15 10:43:40;;;;;;;63.60;31.70;;;;;;;;;;4902630;29;20028;-94
2021/12/15 10:46:27;;;;;;;61.33;31.33;;;;;;;;;;4905302;28;20025;-93
2021/12/15 10:48:58;;;;;;;89.28;45.53;;;;;;;;;;4980025;28;20031;-93
2021/12/15 10:51:24;;;;;;;83.13;45.00;;;;;;;;;;4980076;28;20050;-94
2021/12/15 10:53:52;;;;;;;80.55;43.97;;;;;;;;;;4980383;28;20106;-95
2021/12/15 10:56:19;;;;;;;95.15;46.53;;;;;;;;;;4980454;28;20110;-93
2021/12/15 10:58:48;;;;;;;72.15;37.75;;;;;;;;;;4980093;28;20050;-94
2021/12/15 11:01:32;;;;;;;66.28;34.03;;;;;;;;;;4980237;28;20027;-94
2021/12/15 11:04:00;;;;;;;93.65;45.65;;;;;;;;;;4980177;28;20127;-93
2021/12/15 11:06:32;;;;;;;65.93;34.92;;;;;;;;;;4963035;28;20033;-95
2021/12/15 11:09:16;;;;;;;61.55;35.28;;;;;;;;;;4979913;28;20035;-94
2021/12/15 11:11:56;;;;;;;59.90;32.30;;;;;;;;;;4980080;28;20027;-94
2021/12/15 11:14:30;;;;;;;48.20;26.63;;;;;;;;;;4979833;28;20018;-93
2021/12/15 11:17:12;;;;;;;52.35;27.90;;;;;;;;;;4962844;28;20027;-93
2021/12/15 11:19:43;;;;;;;52.67;29.45;;;;;;;;;;4962848;28;20039;-94
2021/12/15 11:22:28;;;;;;;49.30;28.42;;;;;;;;;;4979690;28;20031;-93
2021/12/15 11:24:54;;;;;;;52.13;29.27;;;;;;;;;;4979561;28;20035;-93
2021/12/15 11:27:20;;;;;;;62.60;35.35;;;;;;;;;;4962554;28;20026;-93
2021/12/15 11:29:46;;;;;;;63.58;35.10;;;;;;;;;;4962132;28;20186;-93
2021/12/15 11:32:31;;;;;;;66.65;33.63;;;;;;;;;;4979669;28;20033;-94
2021/12/15 11:35:20;;;;;;;56.65;31.00;;;;;;;;;;4962896;28;20138;-94
2021/12/15 11:37:47;;;;;;;59.92;31.92;;;;;;;;;;4882850;29;20037;-92
2021/12/15 11:40:13;;;;;;;67.18;35.05;;;;;;;;;;4867325;29;20428;-93
2021/12/15 11:42:40;;;;;;;54.72;31.77;;;;;;;;;;4867307;29;20043;-94
2021/12/15 11:45:12;;;;;;;70.55;41.80;;;;;;;;;;4866592;29;20432;-94
2021/12/15 11:47:38;;;;;;;77.77;40.97;;;;;;;;;;4882488;29;20037;-93
2021/12/15 11:50:22;;;;;;;77.60;38.60;;;;;;;;;;4882514;29;20516;-93
2021/12/15 11:52:51;;;;;;;99.60;46.85;;;;;;;;;;4882628;29;20029;-94
2021/12/15 11:55:22;;;;;;;142.10;61.50;;;;;;;;;;4882607;29;20033;-93
2021/12/15 11:57:49;;;;;;;207.25;89.40;;;;;;;;;;4867022;29;20033;-93
2021/12/15 12:00:16;;;;;;;215.98;97.72;;;;;;;;;;4866895;29;20072;-93
2021/12/15 12:02:47;;;;;;;159.95;72.70;;;;;;;;;;4867034;29;20041;-93
2021/12/15 12:05:19;;;;;;;128.10;58.55;;;;;;;;;;4867011;29;20069;-93
2021/12/15 12:08:02;;;;;;;127.85;55.83;;;;;;;;;;4882464;29;20049;-93
2021/12/15 12:10:34;;;;;;;142.50;63.85;;;;;;;;;;4866720;29;20045;-93
2021/12/15 12:13:07;;;;;;;112.47;51.85;;;;;;;;;;4882256;29;20048;-93
2021/12/15 12:15:35;;;;;;;104.05;45.17;;;;;;;;;;4946392;28;20030;-93
2021/12/15 12:18:06;;;;;;;98.10;45.70;;;;;;;;;;4978813;28;20026;-94
2021/12/15 12:20:34;;;;;;;115.90;52.20;;;;;;;;;;4961770;28;20041;-93
2021/12/15 12:23:02;;;;;;;127.60;57.50;;;;;;;;;;4961871;28;20018;-93
2021/12/15 12:25:31;;;;;;;105.53;51.08;;;;;;;;;;4961843;28;20035;-94
2021/12/15 12:27:58;;;;;;;96.10;44.75;;;;;;;;;;4961923;28;20038;-94
2021/12/15 12:30:27;;;;;;;105.03;45.22;;;;;;;;;;4978563;28;20113;-92
2021/12/15 12:32:54;;;;;;;116.70;45.70;;;;;;;;;;4978729;28;20425;-93
2021/12/15 12:35:24;;;;;;;116.07;47.15;;;;;;;;;;4978566;28;20025;-94
2021/12/15 12:37:51;;;;;;;131.85;54.38;;;;;;;;;;4961698;28;20050;-94
2021/12/15 12:40:19;;;;;;;146.25;60.70;;;;;;;;;;4961278;28;20038;-94
2021/12/15 12:42:45;;;;;;;254.65;88.88;;;;;;;;;;4961708;28;20035;-91
2021/12/15 12:45:11;;;;;;;244.07;85.22;;;;;;;;;;4961603;28;20035;-93
2021/12/15 12:47:45;;;;;;;173.18;66.65;;;;;;;;;;4978766;28;20060;-93
2021/12/15 12:50:35;;;;;;;177.35;66.68;;;;;;;;;;4978528;28;20432;-93
2021/12/15 13:01:13;;;;;;;158.55;65.70;;;;;;;;;;4982381;28;20349;-96
2021/12/15 13:03:43;;;;;;;131.15;57.22;;;;;;;;;;4970936;28;20078;-94
2021/12/15 13:06:11;;;;;;;128.20;56.28;;;;;;;;;;4981582;28;20294;-94
2021/12/15 13:08:37;;;;;;;118.35;51.55;;;;;;;;;;4964956;28;20026;-95
2021/12/15 13:11:05;;;;;;;114.05;47.60;;;;;;;;;;4964645;28;20086;-95
2021/12/15 13:13:50;;;;;;;114.40;49.65;;;;;;;;;;4965094;28;20031;-95
2021/12/15 13:16:23;;;;;;;101.47;44.50;;;;;;;;;;4982121;28;20378;-94
2021/12/15 13:18:55;;;;;;;99.63;44.92;;;;;;;;;;4982062;28;20031;-95
2021/12/15 13:21:45;;;;;;;116.50;53.40;;;;;;;;;;4981928;28;20033;-95
2021/12/15 13:28:40;;;;;;;111.05;56.40;;;;;;;;;;4980198;28;20038;-95
2021/12/15 13:30:02;;;;;;;117.53;51.67;;;;;;;;;;4981796;28;20033;-96
2021/12/15 13:32:32;;;;;;;119.75;52.42;;;;;;;;;;4981926;28;20027;-96
2021/12/15 13:34:58;;;;;;;111.57;48.97;;;;;;;;;;4981881;28;20397;-96
2021/12/15 13:37:43;;;;;;;109.55;47.17;;;;;;;;;;4981891;28;20030;-95
2021/12/15 13:40:11;;;;;;;118.88;50.38;;;;;;;;;;4981549;28;20030;-95
2021/12/15 13:42:41;;;;;;;106.13;47.72;;;;;;;;;;4981487;28;20031;-95
2021/12/15 13:45:24;;;;;;;108.68;45.83;;;;;;;;;;4964546;28;20480;-95
2021/12/15 13:47:50;;;;;;;97.28;44.17;;;;;;;;;;4981392;28;20026;-94
2021/12/15 13:50:18;;;;;;;119.28;53.15;;;;;;;;;;4981142;28;20050;-94
2021/12/15 13:52:45;;;;;;;106.45;50.00;;;;;;;;;;4964146;28;20134;-93
2021/12/15 13:55:30;;;;;;;107.10;48.67;;;;;;;;;;4964504;28;20027;-95
2021/12/15 13:58:02;;;;;;;99.85;47.67;;;;;;;;;;4950017;29;20027;-94
2021/12/15 14:00:48;;;;;;;92.05;41.58;;;;;;;;;;4962114;29;20061;-94
2021/12/15 14:03:23;;;;;;;82.15;38.78;;;;;;;;;;4960803;29;20046;-93
2021/12/15 14:05:52;;;;;;;78.40;41.33;;;;;;;;;;4961966;29;20160;-93
2021/12/15 14:08:20;;;;;;;76.03;37.00;;;;;;;;;;4961096;28;20031;-93
2021/12/15 14:10:48;;;;;;;83.18;40.47;;;;;;;;;;4944892;29;20046;-92
2021/12/15 14:13:14;;;;;;;82.18;41.55;;;;;;;;;;4944488;29;20036;-92
2021/12/15 14:15:41;;;;;;;75.65;37.35;;;;;;;;;;4944762;29;20059;-93
2021/12/15 14:18:18;;;;;;;76.38;40.58;;;;;;;;;;4944543;29;20042;-91
2021/12/15 14:20:50;;;;;;;77.15;38.45;;;;;;;;;;4961565;29;20039;-93
2021/12/15 14:23:18;;;;;;;73.55;37.00;;;;;;;;;;4961791;29;20027;-92
2021/12/15 14:25:44;;;;;;;89.68;43.88;;;;;;;;;;4961557;29;20027;-93
2021/12/15 14:28:12;;;;;;;95.10;46.05;;;;;;;;;;4961286;29;20028;-92
2021/12/15 14:30:39;;;;;;;108.63;53.80;;;;;;;;;;4961349;29;20357;-93
2021/12/15 14:33:17;;;;;;;102.70;50.17;;;;;;;;;;4961283;29;20060;-92
2021/12/15 14:35:43;;;;;;;107.13;54.28;;;;;;;;;;4961270;29;20413;-92
2021/12/15 14:38:09;;;;;;;100.60;49.13;;;;;;;;;;4961527;29;20027;-92
2021/12/15 14:40:36;;;;;;;96.43;49.78;;;;;;;;;;4944379;29;20118;-93
2021/12/15 14:43:02;;;;;;;110.90;50.78;;;;;;;;;;4944453;29;20118;-92
2021/12/15 14:45:28;;;;;;;160.98;71.57;;;;;;;;;;4944215;29;20120;-93
2021/12/15 14:47:54;;;;;;;180.43;76.05;;;;;;;;;;4944237;29;20054;-93
2021/12/15 14:50:21;;;;;;;190.15;74.13;;;;;;;;;;4944008;29;20165;-92
2021/12/15 14:52:50;;;;;;;207.80;86.35;;;;;;;;;;4960967;29;20115;-93
2021/12/15 14:55:27;;;;;;;166.07;82.00;;;;;;;;;;4943751;29;20035;-93
2021/12/15 14:57:53;;;;;;;157.57;78.47;;;;;;;;;;4961161;29;20118;-92
2021/12/15 15:00:21;;;;;;;152.25;79.90;;;;;;;;;;4944229;29;20035;-90
2021/12/15 15:02:59;;;;;;;169.05;91.93;;;;;;;;;;4960811;29;20027;-91
2021/12/15 15:05:33;;;;;;;153.70;78.15;;;;;;;;;;4943677;29;20503;-90
2021/12/15 15:08:01;;;;;;;142.73;69.85;;;;;;;;;;4960729;28;20027;-89
2021/12/15 15:10:29;;;;;;;142.60;68.20;;;;;;;;;;4976641;28;20106;-92
2021/12/15 15:12:55;;;;;;;145.98;71.18;;;;;;;;;;4979762;28;20026;-90
2021/12/15 15:15:33;;;;;;;158.27;73.88;;;;;;;;;;4962706;28;20027;-90
2021/12/15 15:18:12;;;;;;;145.32;67.40;;;;;;;;;;4962675;28;20037;-90
2021/12/15 15:20:39;;;;;;;147.63;69.90;;;;;;;;;;4970506;28;20039;-90
2021/12/15 15:23:17;;;;;;;154.02;68.40;;;;;;;;;;4960579;29;20328;-90
2021/12/15 15:25:45;;;;;;;174.90;75.43;;;;;;;;;;4964604;28;20023;-90
2021/12/15 15:28:14;;;;;;;176.85;77.97;;;;;;;;;;4962530;28;20027;-90
2021/12/15 15:30:41;;;;;;;160.95;71.35;;;;;;;;;;4979677;28;20420;-90
2021/12/15 15:33:27;;;;;;;156.10;68.80;;;;;;;;;;4962464;28;20034;-90
2021/12/15 15:35:55;;;;;;;137.55;62.03;;;;;;;;;;4977855;28;20062;-89
2021/12/15 15:38:23;;;;;;;141.50;70.50;;;;;;;;;;4979700;28;20023;-91
2021/12/15 15:40:54;;;;;;;123.10;60.05;;;;;;;;;;4978024;28;20057;-89
2021/12/15 15:43:28;;;;;;;131.93;63.67;;;;;;;;;;4962501;28;20364;-90
2021/12/15 15:45:55;;;;;;;154.57;76.47;;;;;;;;;;4979430;28;20453;-90
2021/12/15 15:48:22;;;;;;;232.65;123.97;;;;;;;;;;4962375;28;20035;-90
2021/12/15 15:50:57;;;;;;;256.85;143.85;;;;;;;;;;4979047;28;20046;-90
2021/12/15 15:53:23;;;;;;;199.88;119.05;;;;;;;;;;4962566;28;20042;-90
2021/12/15 15:55:50;;;;;;;149.27;86.78;;;;;;;;;;4946425;29;20035;-90
2021/12/15 15:58:17;;;;;;;149.82;89.32;;;;;;;;;;4942578;29;20039;-90
2021/12/15 16:00:49;;;;;;;117.97;67.68;;;;;;;;;;4975008;28;20078;-89
2021/12/15 16:03:24;;;;;;;127.18;65.95;;;;;;;;;;4942904;29;20027;-90
2021/12/15 16:05:51;;;;;;;144.30;64.55;;;;;;;;;;4960082;29;20078;-90
2021/12/15 16:08:17;;;;;;;151.95;65.80;;;;;;;;;;4942770;29;20109;-90
2021/12/15 16:10:44;;;;;;;132.50;62.83;;;;;;;;;;4959613;29;20031;-91
2021/12/15 16:13:12;;;;;;;136.40;70.63;;;;;;;;;;4943046;29;20024;-90
2021/12/15 16:15:43;;;;;;;137.48;65.95;;;;;;;;;;4959522;29;20439;-89
2021/12/15 16:18:20;;;;;;;139.18;71.40;;;;;;;;;;4959495;29;20428;-89
2021/12/15 16:23:25;;;;;;;150.57;74.63;;;;;;;;;;4959709;29;20441;-89
2021/12/15 16:25:52;;;;;;;156.30;77.88;;;;;;;;;;4959238;29;20067;-90
2021/12/15 16:28:21;;;;;;;164.05;81.40;;;;;;;;;;4959853;29;20027;-89
2021/12/15 16:30:52;;;;;;;139.70;74.43;;;;;;;;;;4942318;29;20039;-90
2021/12/15 16:33:23;;;;;;;138.25;70.90;;;;;;;;;;4959663;29;20410;-89
2021/12/15 16:35:49;;;;;;;123.20;62.35;;;;;;;;;;4959886;29;20027;-90
2021/12/15 16:38:24;;;;;;;130.80;63.17;;;;;;;;;;4942642;29;20086;-89
2021/12/15 16:40:53;;;;;;;122.35;60.63;;;;;;;;;;4942231;29;20035;-90
2021/12/15 16:43:19;;;;;;;120.22;60.95;;;;;;;;;;4942425;29;20171;-90
2021/12/15 16:45:47;;;;;;;122.85;60.40;;;;;;;;;;4959249;29;20044;-89
2021/12/15 16:48:30;;;;;;;138.32;60.80;;;;;;;;;;4958986;29;20436;-90
2021/12/15 16:51:02;;;;;;;139.75;65.35;;;;;;;;;;4959041;29;20050;-89
2021/12/15 16:53:38;;;;;;;143.93;65.93;;;;;;;;;;4951910;29;20039;-90
2021/12/15 16:56:05;;;;;;;298.48;129.52;;;;;;;;;;4959142;29;20432;-87
2021/12/15 16:58:34;;;;;;;436.50;186.07;;;;;;;;;;4959053;29;20034;-87
2021/12/15 17:01:01;;;;;;;537.55;228.98;;;;;;;;;;4958909;29;20027;-87
2021/12/15 17:03:32;;;;;;;659.05;273.55;;;;;;;;;;4942250;29;20028;-86
2021/12/15 17:05:58;;;;;;;648.15;272.00;;;;;;;;;;4941647;29;20051;-87
2021/12/15 17:08:25;;;;;;;447.20;176.32;;;;;;;;;;4958942;29;20115;-86
2021/12/15 17:10:52;;;;;;;333.45;126.75;;;;;;;;;;4959249;29;20027;-87
2021/12/15 17:13:23;;;;;;;318.65;127.68;;;;;;;;;;4959231;29;20035;-88
2021/12/15 17:15:57;;;;;;;295.80;117.07;;;;;;;;;;4959117;29;20031;-87
2021/12/15 17:18:31;;;;;;;286.20;111.10;;;;;;;;;;4958979;29;20034;-87
2021/12/15 17:21:02;;;;;;;287.00;108.38;;;;;;;;;;4942082;29;20028;-87
2021/12/15 17:23:32;;;;;;;279.40;115.68;;;;;;;;;;4959095;29;20024;-87
2021/12/15 17:26:04;;;;;;;289.60;121.53;;;;;;;;;;4959083;29;20031;-87
2021/12/15 17:28:41;;;;;;;313.27;120.07;;;;;;;;;;4958949;29;20425;-86
2021/12/15 17:31:07;;;;;;;270.95;111.45;;;;;;;;;;4959061;29;20019;-87
2021/12/15 17:33:33;;;;;;;290.50;104.55;;;;;;;;;;4958940;29;20031;-88
2021/12/15 17:36:13;;;;;;;289.08;102.00;;;;;;;;;;4959200;29;20044;-88
2021/12/15 17:38:39;;;;;;;224.15;84.15;;;;;;;;;;4941442;29;20036;-88
2021/12/15 17:41:10;;;;;;;199.30;81.60;;;;;;;;;;4959017;29;20031;-88
2021/12/15 17:43:39;;;;;;;214.20;83.03;;;;;;;;;;4960765;28;20039;-87
2021/12/15 17:46:34;;;;;;;214.90;82.65;;;;;;;;;;4945276;29;20031;-88
2021/12/15 17:49:03;;;;;;;223.73;83.05;;;;;;;;;;4903276;29;20085;-88
2021/12/15 17:51:47;;;;;;;185.27;72.30;;;;;;;;;;4887332;29;20044;-87
2021/12/15 17:54:14;;;;;;;179.45;66.15;;;;;;;;;;4887875;29;20044;-87
2021/12/15 17:56:41;;;;;;;193.43;67.40;;;;;;;;;;4887408;29;20032;-88
2021/12/15 17:59:07;;;;;;;167.90;65.15;;;;;;;;;;4903381;29;20508;-86
2021/12/15 18:01:35;;;;;;;183.95;65.60;;;;;;;;;;4903363;29;20482;-88
2021/12/15 18:04:02;;;;;;;176.73;68.88;;;;;;;;;;4899274;29;20312;-86
2021/12/15 18:06:28;;;;;;;197.68;73.13;;;;;;;;;;4897681;29;20088;-87
2021/12/15 18:08:54;;;;;;;184.60;69.03;;;;;;;;;;4885121;29;20336;-86
2021/12/15 18:11:21;;;;;;;186.52;71.90;;;;;;;;;;4899723;29;20025;-86
2021/12/15 18:13:50;;;;;;;222.00;79.57;;;;;;;;;;4899918;29;20025;-86
2021/12/15 18:16:16;;;;;;;197.25;75.00;;;;;;;;;;4899259;29;20029;-87
2021/12/15 18:18:43;;;;;;;186.30;71.78;;;;;;;;;;4884263;29;20041;-87
2021/12/15 18:21:11;;;;;;;368.35;105.65;;;;;;;;;;4899931;29;20467;-86
2021/12/15 18:23:37;;;;;;;403.90;116.82;;;;;;;;;;4902572;29;20021;-86
2021/12/15 18:26:04;;;;;;;361.85;128.20;;;;;;;;;;4937347;28;20042;-87
2021/12/15 18:28:30;;;;;;;288.90;101.55;;;;;;;;;;4960726;28;20171;-92
2021/12/15 18:30:58;;;;;;;174.20;67.20;;;;;;;;;;4945074;29;20026;-91
2021/12/15 18:33:27;;;;;;;207.52;71.18;;;;;;;;;;4970905;28;20023;-86
2021/12/15 18:35:53;;;;;;;169.90;62.30;;;;;;;;;;4962048;28;20055;-91
2021/12/15 18:38:20;;;;;;;190.65;63.58;;;;;;;;;;4963763;28;20029;-90
2021/12/15 18:40:51;;;;;;;154.45;65.00;;;;;;;;;;4980521;28;20035;-91
2021/12/15 18:43:18;;;;;;;158.65;64.43;;;;;;;;;;4963166;28;20069;-91
2021/12/15 18:45:44;;;;;;;132.95;57.47;;;;;;;;;;4963486;28;20031;-91
2021/12/15 18:48:11;;;;;;;144.20;56.15;;;;;;;;;;4980419;28;20054;-90
2021/12/15 18:50:47;;;;;;;155.35;56.20;;;;;;;;;;4980211;28;20050;-91
2021/12/15 18:53:14;;;;;;;136.50;53.67;;;;;;;;;;4980121;28;20027;-91
2021/12/15 18:55:41;;;;;;;145.65;52.85;;;;;;;;;;4963238;28;20117;-90
2021/12/15 18:58:07;;;;;;;132.60;48.63;;;;;;;;;;4980666;28;20061;-90
2021/12/15 19:00:36;;;;;;;128.82;53.42;;;;;;;;;;4980519;28;20019;-90